Time;durP1;ratioP1;P1;durP2;ratioP2;P2;SDS_P1;SDS_P2;PMS_P1;PMS_P2;Temp;Humidity;BMP_temperature;BMP_pressure;BME280_temperature;BME280_humidity;BME280_pressure;Samples;Min_cycle;Max_cycle;Signal;HPM_P1;HPM_P2
2023/03/20 00:02:22;;;;;;;23.23;11.52;;;;;;;6.72;79.18;101405.81;4948191;28;20525;-86
2023/03/20 00:05:22;;;;;;;21.60;10.60;;;;;;;7.06;79.12;101458.50;4938998;29;20043;-86
2023/03/20 00:07:48;;;;;;;21.95;11.95;;;;;;;6.90;79.08;101427.59;4955087;28;20045;-86
2023/03/20 00:13:38;;;;;;;20.38;11.15;;;;;;;6.89;79.43;101431.25;4974470;28;20042;-85
2023/03/20 00:16:38;;;;;;;21.20;11.30;;;;;;;6.95;79.54;101436.13;4972888;28;20150;-86
2023/03/20 00:19:30;;;;;;;24.00;11.48;;;;;;;6.82;80.03;101435.34;4947636;28;20046;-87
2023/03/20 00:22:31;;;;;;;20.63;10.70;;;;;;;6.55;81.37;101425.81;4956497;28;20462;-86
2023/03/20 00:25:00;;;;;;;19.35;10.43;;;;;;;6.51;81.06;101408.31;4952075;29;20438;-86
2023/03/20 00:27:36;;;;;;;18.70;9.90;;;;;;;6.61;81.05;101426.31;4962409;28;20070;-87
2023/03/20 00:30:28;;;;;;;19.83;10.85;;;;;;;6.26;82.54;101424.47;4971992;28;20494;-86
2023/03/20 00:32:56;;;;;;;20.35;10.52;;;;;;;6.22;82.64;101401.63;4960728;28;20039;-86
2023/03/20 00:35:32;;;;;;;22.73;10.60;;;;;;;6.19;82.02;101383.19;4939243;28;20038;-86
2023/03/20 00:41:38;;;;;;;20.42;9.68;;;;;;;6.41;82.67;101431.31;4981553;28;20103;-86
2023/03/20 00:53:58;;;;;;;15.20;8.93;;;;;;;6.35;82.54;101405.09;4971813;28;20111;-86
2023/03/20 01:00:10;;;;;;;15.80;8.73;;;;;;;6.15;83.17;101408.41;4971505;28;20045;-86
2023/03/20 01:10:27;;;;;;;17.33;8.98;;;;;;;6.04;85.25;101418.06;4972997;28;20187;-86
2023/03/20 01:12:55;;;;;;;19.60;9.68;;;;;;;5.76;85.89;101391.63;4954880;28;20433;-86
2023/03/20 01:15:43;;;;;;;19.27;9.75;;;;;;;5.96;86.17;101409.75;4971126;28;20038;-86
2023/03/20 01:18:43;;;;;;;19.77;10.23;;;;;;;5.91;86.04;101401.19;4971737;28;20487;-86
2023/03/20 01:21:54;;;;;;;19.13;9.95;;;;;;;5.79;86.44;101408.28;4952742;29;20056;-85
2023/03/20 01:32:53;;;;;;;17.67;9.13;;;;;;;5.72;86.22;101378.53;4959925;28;20125;-84
2023/03/20 01:38:44;;;;;;;19.05;9.75;;;;;;;5.84;85.75;101381.28;4975310;28;20065;-85
2023/03/20 01:41:34;;;;;;;20.45;10.43;;;;;;;5.99;85.45;101398.00;4974721;28;20063;-86
2023/03/20 01:44:00;;;;;;;18.42;9.77;;;;;;;5.80;85.00;101377.97;4975433;28;20049;-85
2023/03/20 01:50:21;;;;;;;19.77;9.80;;;;;;;5.75;86.52;101389.94;4983681;28;20054;-86
2023/03/20 01:52:47;;;;;;;22.35;10.73;;;;;;;5.56;86.56;101383.28;4976225;28;20050;-84
2023/03/20 01:55:15;;;;;;;22.25;10.90;;;;;;;5.54;86.67;101366.53;4941911;28;20106;-85
2023/03/20 01:57:54;;;;;;;22.65;11.40;;;;;;;5.52;87.11;101372.94;4941273;28;20039;-86
2023/03/20 02:00:26;;;;;;;18.25;10.88;;;;;;;5.54;86.82;101350.53;4974961;28;20039;-85
2023/03/20 02:03:16;;;;;;;21.30;11.15;;;;;;;5.92;86.00;101377.06;4958478;28;20134;-86
2023/03/20 02:05:43;;;;;;;21.30;11.05;;;;;;;5.83;85.39;101347.53;4975254;28;20078;-85
2023/03/20 02:08:27;;;;;;;21.35;10.05;;;;;;;5.91;85.59;101358.50;4941737;28;20070;-85
2023/03/20 02:10:59;;;;;;;20.80;10.77;;;;;;;5.85;85.12;101340.25;4957420;28;20498;-85
2023/03/20 02:13:41;;;;;;;19.83;10.38;;;;;;;6.23;84.78;101384.66;4924791;28;20216;-85
2023/03/20 02:16:26;;;;;;;20.60;10.95;;;;;;;6.09;84.90;101378.53;4954134;29;20106;-86
2023/03/20 02:18:55;;;;;;;20.88;11.40;;;;;;;6.02;84.96;101355.06;4936659;28;20457;-86
2023/03/20 02:25:02;;;;;;;21.27;10.95;;;;;;;5.95;85.57;101370.69;4974901;28;20082;-88
2023/03/20 02:27:42;;;;;;;;;;;;;;;5.96;85.59;101369.72;4975186;28;20033;-87
2023/03/20 02:30:32;;;;;;;24.70;10.38;;;;;;;5.88;86.02;101359.59;4973528;28;20386;-86
2023/03/20 02:33:12;;;;;;;22.23;10.63;;;;;;;5.58;87.03;101354.69;4969055;28;20494;-87
2023/03/20 02:36:18;;;;;;;26.40;10.93;;;;;;;5.71;87.49;101366.16;4974468;28;20149;-85
2023/03/20 02:39:15;;;;;;;21.73;10.50;;;;;;;5.71;87.35;101357.28;4986934;28;20099;-84
2023/03/20 02:42:26;;;;;;;22.50;11.27;;;;;;;5.67;88.07;101354.00;4956258;29;20035;-84
2023/03/20 02:45:14;;;;;;;20.10;10.95;;;;;;;5.79;87.68;101348.75;4955352;29;20132;-85
2023/03/20 02:51:05;;;;;;;26.70;10.57;;;;;;;5.94;87.14;101347.63;4967880;28;20077;-86
2023/03/20 02:53:43;;;;;;;20.70;11.15;;;;;;;5.95;86.71;101327.97;4956787;28;20137;-85
2023/03/20 02:59:52;;;;;;;21.70;10.70;;;;;;;6.08;86.37;101341.25;4955272;29;20113;-86
2023/03/20 03:05:59;;;;;;;21.95;10.93;;;;;;;5.98;86.34;101306.41;4954918;28;20138;-87
2023/03/20 03:08:34;;;;;;;19.38;10.15;;;;;;;6.02;86.64;101323.03;4937989;29;20115;-84
2023/03/20 03:14:56;;;;;;;24.27;10.98;;;;;;;6.13;86.24;101307.91;4974455;28;20069;-84
2023/03/20 03:20:43;;;;;;;21.90;10.88;;;;;;;6.28;85.78;101318.41;4958751;29;20042;-84
2023/03/20 03:23:11;;;;;;;18.85;10.38;;;;;;;6.41;85.26;101311.13;4959989;28;20039;-84
2023/03/20 03:25:38;;;;;;;20.13;10.90;;;;;;;6.42;84.75;101304.84;4947545;29;20050;-85
2023/03/20 03:28:16;;;;;;;20.90;10.48;;;;;;;6.39;84.60;101294.41;4954753;29;20070;-86
2023/03/20 03:30:44;;;;;;;21.45;10.98;;;;;;;6.42;84.62;101309.31;4956909;28;20042;-87
2023/03/20 03:33:24;;;;;;;22.45;10.30;;;;;;;6.44;84.91;101310.91;4940664;29;20075;-87
2023/03/20 03:36:00;;;;;;;19.80;10.07;;;;;;;6.67;84.75;101324.28;4936192;29;20047;-88
2023/03/20 03:38:30;;;;;;;17.70;9.93;;;;;;;6.76;84.02;101326.25;4919710;29;20052;-86
2023/03/20 03:41:50;;;;;;;19.98;10.55;;;;;;;6.70;84.29;101334.75;4916654;29;20051;-86
2023/03/20 03:47:44;;;;;;;22.27;10.55;;;;;;;6.75;83.73;101337.91;4917048;29;20050;-85
2023/03/20 03:53:37;;;;;;;23.38;11.35;;;;;;;6.73;83.90;101339.84;4915848;29;20034;-85
2023/03/20 03:56:05;;;;;;;19.88;10.50;;;;;;;6.63;84.11;101330.88;4927437;29;20126;-84
2023/03/20 03:58:35;;;;;;;21.27;11.57;;;;;;;6.66;84.07;101338.63;4922415;29;20064;-86
2023/03/20 04:01:03;;;;;;;22.77;11.40;;;;;;;6.66;84.23;101343.97;4933008;29;20043;-87
2023/03/20 04:03:35;;;;;;;24.20;10.80;;;;;;;6.23;85.95;101326.75;4945571;29;20515;-87
2023/03/20 04:06:03;;;;;;;21.83;11.27;;;;;;;6.28;85.86;101329.06;4932545;29;20122;-87
2023/03/20 04:08:29;;;;;;;24.15;11.07;;;;;;;6.09;86.15;101300.25;4936143;29;20036;-87
2023/03/20 04:10:55;;;;;;;22.67;11.38;;;;;;;6.22;86.18;101334.88;4932446;29;20051;-86
2023/03/20 04:13:22;;;;;;;23.30;11.63;;;;;;;6.17;86.46;101337.88;4936829;29;20054;-86
2023/03/20 04:15:49;;;;;;;24.80;12.50;;;;;;;6.17;86.69;101343.22;4937715;29;20067;-86
2023/03/20 04:18:17;;;;;;;21.85;11.63;;;;;;;6.27;86.16;101333.53;4939377;29;20056;-87
2023/03/20 04:20:45;;;;;;;22.98;12.32;;;;;;;6.32;86.23;101350.09;4923739;29;20052;-88
2023/03/20 04:23:11;;;;;;;24.50;11.65;;;;;;;6.20;85.82;101307.44;4909440;29;20048;-88
2023/03/20 04:25:37;;;;;;;24.15;11.80;;;;;;;6.45;85.60;101341.97;4919623;29;20569;-87
2023/03/20 04:28:03;;;;;;;28.35;12.30;;;;;;;6.37;85.77;101322.16;4928315;29;20047;-85
2023/03/20 04:33:52;;;;;;;22.15;11.68;;;;;;;6.35;85.54;101332.97;4930225;28;20066;-87
2023/03/20 04:36:19;;;;;;;22.27;12.30;;;;;;;6.25;86.07;101339.97;4976927;28;20074;-88
2023/03/20 04:38:46;;;;;;;24.60;11.70;;;;;;;6.19;86.38;101337.78;4981313;28;20070;-88
2023/03/20 04:41:12;;;;;;;21.83;12.07;;;;;;;6.22;87.08;101346.41;4930638;28;20132;-86
2023/03/20 04:43:39;;;;;;;25.30;12.00;;;;;;;5.88;87.85;101326.72;4974695;28;20034;-85
2023/03/20 04:46:07;;;;;;;24.13;11.73;;;;;;;5.91;87.78;101329.13;4952640;28;20039;-86
2023/03/20 04:48:32;;;;;;;24.77;12.20;;;;;;;5.75;88.05;101313.41;4971783;28;20379;-87
2023/03/20 04:50:59;;;;;;;22.20;11.95;;;;;;;5.94;88.09;101347.63;4945165;28;20051;-86
2023/03/20 04:53:25;;;;;;;23.65;11.85;;;;;;;6.12;87.70;101351.59;4953431;28;20046;-87
2023/03/20 04:55:51;;;;;;;23.83;11.82;;;;;;;5.99;87.43;101342.78;4955188;28;20047;-86
2023/03/20 04:58:18;;;;;;;22.95;11.52;;;;;;;5.94;87.30;101326.25;4938024;29;20102;-87
2023/03/20 05:00:44;;;;;;;25.85;12.00;;;;;;;6.04;87.34;101348.66;4944579;28;20043;-86
2023/03/20 05:03:10;;;;;;;22.85;11.38;;;;;;;6.11;87.02;101344.56;4973349;28;20046;-87
2023/03/20 05:05:37;;;;;;;29.27;12.80;;;;;;;5.89;87.38;101336.41;4956119;28;20141;-86
2023/03/20 05:08:05;;;;;;;21.52;11.07;;;;;;;6.02;87.66;101365.75;4962563;28;20042;-88
2023/03/20 05:10:31;;;;;;;24.05;11.88;;;;;;;5.86;88.16;101366.84;4942406;28;20126;-86
2023/03/20 05:12:58;;;;;;;25.30;11.77;;;;;;;5.68;88.80;101366.38;4957803;28;20145;-88
2023/03/20 05:15:24;;;;;;;23.70;11.95;;;;;;;5.59;88.91;101348.38;4959489;28;20512;-86
2023/03/20 05:17:51;;;;;;;23.48;11.60;;;;;;;5.62;88.47;101344.63;4956975;28;20148;-88
2023/03/20 05:20:23;;;;;;;25.90;12.48;;;;;;;5.88;88.52;101364.06;4950597;29;20047;-86
2023/03/20 05:22:49;;;;;;;24.15;11.20;;;;;;;5.96;87.38;101377.72;4967796;28;20039;-88
2023/03/20 05:25:29;;;;;;;24.13;11.57;;;;;;;5.83;87.02;101344.84;4936954;29;20105;-90
2023/03/20 05:31:20;;;;;;;24.58;11.35;;;;;;;6.21;86.36;101375.91;4977487;28;20703;-86
2023/03/20 05:33:47;;;;;;;24.30;11.63;;;;;;;6.30;86.01;101364.53;4961546;28;20085;-91
2023/03/20 05:36:32;;;;;;;23.17;11.75;;;;;;;6.48;85.54;101371.13;4950135;28;20042;-90
2023/03/20 05:42:01;;;;;;;26.17;11.87;;;;;;;6.62;84.10;101364.72;4942760;28;19923;-91
2023/03/20 05:44:58;;;;;;;24.42;11.43;;;;;;;6.58;84.14;101363.28;4935943;29;20139;-91
2023/03/20 05:47:37;;;;;;;22.73;11.43;;;;;;;6.26;84.58;101336.34;4904673;29;20115;-90
2023/03/20 05:50:30;;;;;;;26.80;11.55;;;;;;;6.22;86.10;101358.91;4918741;29;20036;-90
2023/03/20 05:53:32;;;;;;;28.95;11.38;;;;;;;6.37;85.42;101371.13;4937282;29;20472;-90
2023/03/20 05:56:08;;;;;;;24.42;11.35;;;;;;;6.35;84.73;101346.34;4939884;29;20485;-92
2023/03/20 05:58:52;;;;;;;25.75;11.55;;;;;;;6.57;84.18;101376.75;4939099;29;20103;-91
2023/03/20 06:01:20;;;;;;;24.13;11.13;;;;;;;6.24;84.17;101338.28;4919740;29;20102;-90
2023/03/20 06:03:50;;;;;;;25.10;11.75;;;;;;;6.31;85.67;101369.75;4903469;29;20039;-92
2023/03/20 06:06:26;;;;;;;26.95;12.70;;;;;;;6.39;84.89;101342.47;4923281;29;20044;-95
2023/03/20 06:10:21;;;;;;;23.10;11.88;;;;;;;6.57;83.66;101334.84;4897733;28;20161;-88
2023/03/20 06:12:22;;;;;;;29.27;12.65;;;;;;;6.74;82.85;101333.53;4910278;29;20047;-93
2023/03/20 06:14:49;;;;;;;26.42;12.00;;;;;;;6.91;82.75;101337.56;4903279;29;20067;-90
2023/03/20 06:17:25;;;;;;;25.92;11.77;;;;;;;7.08;82.00;101346.94;4922340;29;20063;-94
2023/03/20 06:19:59;;;;;;;34.50;13.10;;;;;;;7.14;81.35;101376.72;4936350;29;20154;-93
2023/03/20 06:22:52;;;;;;;24.63;11.43;;;;;;;7.25;80.96;101370.50;4933973;29;20099;-88
2023/03/20 06:25:58;;;;;;;21.88;10.80;;;;;;;7.35;80.63;101378.63;4917938;29;20044;-96
2023/03/20 06:31:23;;;;;;;24.63;11.83;;;;;;;7.32;80.43;101339.59;5824172;23;20094;-93
2023/03/20 06:36:53;;;;;;;21.15;11.25;;;;;;;7.34;80.27;101380.47;4953299;28;20132;-94
2023/03/20 06:39:18;;;;;;;25.33;12.43;;;;;;;7.04;81.21;101348.13;4917239;29;20079;-92
2023/03/20 06:41:48;;;;;;;20.50;11.35;;;;;;;6.95;81.27;101358.59;4939500;29;20093;-92
2023/03/20 06:44:14;;;;;;;22.95;10.90;;;;;;;7.09;81.36;101362.84;4945972;29;20050;-88
2023/03/20 06:46:58;;;;;;;22.63;11.13;;;;;;;6.90;81.50;101331.34;4948859;29;20024;-95
2023/03/20 06:49:27;;;;;;;24.63;11.82;;;;;;;7.25;80.91;101351.78;4914394;29;20048;-86
2023/03/20 06:51:55;;;;;;;22.98;11.30;;;;;;;7.25;80.39;101350.94;4931912;29;20043;-90
2023/03/20 06:54:24;;;;;;;23.27;11.85;;;;;;;7.15;81.04;101342.78;4917890;29;20065;-96
2023/03/20 06:56:56;;;;;;;20.35;11.20;;;;;;;7.32;80.64;101368.19;4893876;29;20040;-91
2023/03/20 06:59:22;;;;;;;24.00;11.35;;;;;;;7.43;80.20;101378.03;4927441;29;20031;-91
2023/03/20 07:02:23;;;;;;;23.20;11.40;;;;;;;7.36;80.42;101361.63;4904063;29;20056;-93
2023/03/20 07:05:05;;;;;;;22.70;11.65;;;;;;;7.66;79.36;101387.75;4912558;29;20111;-94
2023/03/20 07:12:42;;;;;;;25.37;11.20;;;;;;;7.75;78.42;101372.75;4924295;27;20316;-87
2023/03/20 07:15:10;;;;;;;24.33;12.05;;;;;;;7.59;78.58;101379.34;4934725;29;20287;-89
2023/03/20 07:17:37;;;;;;;20.77;11.20;;;;;;;7.37;79.74;101382.03;4914402;29;20047;-91
2023/03/20 07:20:25;;;;;;;29.02;12.02;;;;;;;7.52;79.52;101371.97;4915210;29;20144;-91
2023/03/20 07:23:00;;;;;;;23.17;11.85;;;;;;;7.13;79.96;101368.81;4928973;29;20046;-90
2023/03/20 07:25:53;;;;;;;21.63;11.57;;;;;;;7.48;79.71;101390.06;4925671;29;20040;-93
2023/03/20 07:28:21;;;;;;;20.50;10.90;;;;;;;7.34;78.91;101361.75;4917397;29;20150;-92
2023/03/20 07:30:58;;;;;;;23.42;12.13;;;;;;;7.53;79.38;101387.88;4880634;29;20104;-94
2023/03/20 07:33:25;;;;;;;22.75;11.02;;;;;;;7.46;78.91;101375.97;4915538;29;20055;-93
2023/03/20 07:35:58;;;;;;;21.85;10.90;;;;;;;7.26;79.92;101388.28;5026728;23;20204;-94
2023/03/20 07:38:32;;;;;;;22.27;11.55;;;;;;;7.24;79.26;101355.44;4968122;28;20545;-94
2023/03/20 07:40:59;;;;;;;25.90;11.60;;;;;;;7.43;78.88;101354.81;4954900;28;20058;-92
2023/03/20 07:43:47;;;;;;;23.75;11.88;;;;;;;7.53;78.73;101365.63;4930691;28;20066;-94
2023/03/20 07:46:25;;;;;;;20.75;11.07;;;;;;;7.67;77.68;101349.28;4959545;28;20082;-94
2023/03/20 07:48:57;;;;;;;25.73;12.82;;;;;;;7.87;77.23;101360.22;4916394;29;20412;-93
2023/03/20 07:51:32;;;;;;;23.27;12.55;;;;;;;7.94;77.59;101378.31;4945807;28;20171;-89
2023/03/20 07:54:40;;;;;;;27.65;11.85;;;;;;;8.30;76.00;101372.69;4958180;28;20053;-96
2023/03/20 07:57:06;;;;;;;23.52;11.27;;;;;;;8.47;75.73;101369.47;4958476;28;20137;-89
2023/03/20 07:59:38;;;;;;;20.25;10.70;;;;;;;8.42;74.66;101353.78;4952697;28;20062;-89
2023/03/20 08:02:04;;;;;;;19.40;10.73;;;;;;;8.42;74.72;101374.38;4967681;28;20139;-88
2023/03/20 08:04:30;;;;;;;25.63;12.07;;;;;;;8.57;74.56;101375.75;4952573;28;20169;-91
2023/03/20 08:12:53;;;;;;;23.90;11.77;;;;;;;8.70;73.68;101380.06;4927294;29;20051;-92
2023/03/20 08:15:18;;;;;;;26.13;12.05;;;;;;;8.59;73.48;101360.41;4941375;29;20205;-91
2023/03/20 08:17:59;;;;;;;20.38;11.43;;;;;;;8.73;73.50;101361.03;4904818;29;20122;-91
2023/03/20 08:20:31;;;;;;;23.73;12.15;;;;;;;8.92;72.95;101368.34;4927514;29;20051;-93
2023/03/20 08:22:58;;;;;;;25.13;12.52;;;;;;;9.00;72.37;101396.19;4904308;29;20076;-93
2023/03/20 08:25:32;;;;;;;22.08;12.07;;;;;;;8.70;73.14;101386.28;4904148;29;20053;-91
2023/03/20 08:28:02;;;;;;;24.23;12.07;;;;;;;8.79;73.39;101385.50;4907221;29;20055;-88
2023/03/20 08:30:28;;;;;;;21.55;11.50;;;;;;;8.74;73.90;101368.09;4905482;29;20059;-90
2023/03/20 08:33:01;;;;;;;23.40;12.48;;;;;;;9.09;72.65;101357.84;4914926;29;20139;-93
2023/03/20 08:35:26;;;;;;;22.98;11.80;;;;;;;9.28;70.91;101373.19;4909303;29;20052;-92
2023/03/20 08:37:53;;;;;;;20.77;11.50;;;;;;;9.39;71.25;101382.09;4899574;29;20496;-88
2023/03/20 08:40:19;;;;;;;22.70;11.75;;;;;;;9.45;69.22;101370.84;4905913;29;20068;-87
2023/03/20 08:42:45;;;;;;;18.90;10.82;;;;;;;9.50;68.21;101349.78;4907504;29;20065;-84
2023/03/20 08:45:15;;;;;;;20.85;10.88;;;;;;;9.50;67.90;101350.66;4907155;29;20055;-87
2023/03/20 08:47:47;;;;;;;20.73;11.10;;;;;;;9.55;68.14;101384.28;4902394;29;20115;-91
2023/03/20 08:50:14;;;;;;;19.15;10.25;;;;;;;9.78;66.72;101358.91;4908286;29;20051;-89
2023/03/20 08:52:42;;;;;;;20.45;9.80;;;;;;;10.35;65.40;101378.78;4894900;29;20129;-89
2023/03/20 08:55:12;;;;;;;20.60;10.20;;;;;;;10.58;64.84;101394.59;4911168;29;20127;-88
2023/03/20 08:57:40;;;;;;;18.42;10.05;;;;;;;10.67;63.49;101356.09;4895227;29;20243;-88
2023/03/20 09:00:06;;;;;;;21.65;9.85;;;;;;;10.92;62.65;101364.53;4892621;29;20044;-90
2023/03/20 09:02:34;;;;;;;21.33;11.23;;;;;;;11.40;61.82;101355.41;4900344;29;20052;-90
2023/03/20 09:05:06;;;;;;;22.92;10.70;;;;;;;11.92;59.84;101369.19;4927227;29;20137;-91
2023/03/20 09:07:36;;;;;;;18.65;10.90;;;;;;;13.08;57.08;101361.00;4929640;29;20507;-87
2023/03/20 09:10:06;;;;;;;17.20;10.60;;;;;;;14.05;52.93;101353.44;4915983;29;20515;-92
2023/03/20 09:12:33;;;;;;;18.02;10.52;;;;;;;15.14;50.53;101371.16;4923089;29;20135;-88
2023/03/20 09:15:01;;;;;;;20.17;11.00;;;;;;;15.36;49.03;101331.66;4932441;29;20123;-89
2023/03/20 09:17:30;;;;;;;16.45;10.30;;;;;;;16.31;46.84;101330.56;4916509;29;20489;-91
2023/03/20 09:19:57;;;;;;;17.08;10.57;;;;;;;16.41;45.64;101336.56;4926466;29;20473;-91
2023/03/20 09:22:34;;;;;;;18.85;10.90;;;;;;;18.20;41.74;101354.50;4931401;29;20122;-90
2023/03/20 09:25:06;;;;;;;16.70;10.30;;;;;;;19.46;39.12;101338.25;4928875;29;20055;-89
2023/03/20 09:27:32;;;;;;;14.90;10.75;;;;;;;21.19;36.64;101343.03;4911414;29;20048;-91
2023/03/20 09:30:11;;;;;;;14.07;10.23;;;;;;;21.31;35.61;101340.50;4921676;29;20401;-91
2023/03/20 09:32:51;;;;;;;15.85;10.15;;;;;;;21.25;34.19;101332.06;4914807;29;20127;-93
2023/03/20 09:35:31;;;;;;;15.68;9.85;;;;;;;21.04;34.83;101321.41;4934229;29;20048;-93
2023/03/20 09:41:20;;;;;;;17.08;9.50;;;;;;;21.61;33.42;101330.72;4932119;29;20098;-88
2023/03/20 09:43:58;;;;;;;17.10;9.57;;;;;;;20.08;36.05;101319.13;4928576;29;20071;-89
2023/03/20 09:46:33;;;;;;;19.02;10.00;;;;;;;20.19;36.63;101332.16;4924075;29;20122;-88
2023/03/20 09:49:35;;;;;;;16.00;10.00;;;;;;;20.99;34.62;101329.44;4928377;29;20099;-92
2023/03/20 09:52:03;;;;;;;14.82;9.38;;;;;;;21.23;34.16;101316.94;4908513;29;20447;-90
2023/03/20 09:54:45;;;;;;;16.85;9.10;;;;;;;22.34;32.64;101324.81;4913451;29;20048;-90
2023/03/20 09:57:18;;;;;;;15.07;8.15;;;;;;;22.82;31.22;101315.09;4932839;29;20065;-91
2023/03/20 09:59:44;;;;;;;15.70;7.88;;;;;;;23.20;31.08;101307.75;4916571;29;20127;-90
2023/03/20 10:02:23;;;;;;;15.20;8.07;;;;;;;24.61;29.33;101314.59;4917357;29;20440;-89
2023/03/20 10:05:02;;;;;;;14.32;7.68;;;;;;;24.29;28.60;101305.81;4937284;29;20050;-92
2023/03/20 10:11:54;;;;;;;17.90;8.18;;;;;;;22.76;31.65;101307.78;4935538;29;20046;-93
2023/03/20 10:14:58;;;;;;;15.23;7.00;;;;;;;24.23;28.89;101296.63;4997960;23;20059;-93
2023/03/20 10:17:37;;;;;;;13.02;7.20;;;;;;;24.00;29.73;101299.31;4970412;28;20054;-92
2023/03/20 10:20:31;;;;;;;13.68;7.28;;;;;;;23.03;30.73;101311.09;4957455;29;20044;-93
2023/03/20 10:23:22;;;;;;;12.25;7.30;;;;;;;24.67;29.18;101281.75;4932465;29;20048;-90
2023/03/20 10:25:51;;;;;;;15.95;7.70;;;;;;;25.11;27.80;101273.91;4937524;29;20470;-89
2023/03/20 10:28:25;;;;;;;16.25;7.65;;;;;;;22.97;30.27;101296.38;4926096;29;20151;-89
2023/03/20 10:30:53;;;;;;;13.48;7.30;;;;;;;23.60;29.99;101299.88;4959428;28;20051;-90
2023/03/20 10:33:36;;;;;;;19.63;8.25;;;;;;;25.41;27.58;101293.81;4977896;28;20042;-93
2023/03/20 10:36:29;;;;;;;15.02;7.00;;;;;;;24.90;28.08;101291.88;4956209;29;20134;-89
2023/03/20 10:39:13;;;;;;;15.13;7.55;;;;;;;24.36;28.09;101273.56;4944239;29;20043;-92
2023/03/20 10:41:46;;;;;;;16.77;6.95;;;;;;;21.58;32.79;101287.34;4952613;29;20188;-90
2023/03/20 10:44:19;;;;;;;16.38;8.02;;;;;;;22.65;32.06;101270.16;4926938;29;20043;-93
2023/03/20 10:46:51;;;;;;;17.92;8.32;;;;;;;22.10;31.73;101262.59;4895994;29;20178;-90
2023/03/20 10:49:32;;;;;;;17.45;8.25;;;;;;;22.99;31.26;101300.81;4929683;29;20050;-89
2023/03/20 10:52:03;;;;;;;22.30;7.25;;;;;;;22.61;31.22;101257.97;4966643;29;20081;-90
2023/03/20 10:54:38;;;;;;;18.17;7.85;;;;;;;24.11;30.30;101276.50;4941042;28;20103;-90
2023/03/20 10:57:06;;;;;;;16.17;7.40;;;;;;;24.47;28.58;101266.44;4936566;28;20050;-92
2023/03/20 10:59:44;;;;;;;19.63;7.57;;;;;;;24.90;27.75;101273.47;4964356;23;20067;-94
2023/03/20 11:02:15;;;;;;;17.27;7.18;;;;;;;24.96;27.91;101242.25;4918614;29;20091;-91
2023/03/20 11:04:42;;;;;;;19.98;7.30;;;;;;;25.04;28.05;101252.03;4929588;29;20055;-90
2023/03/20 11:07:45;;;;;;;16.45;6.95;;;;;;;25.90;26.90;101241.91;4924881;29;20044;-94
2023/03/20 11:10:13;;;;;;;18.23;7.20;;;;;;;26.31;26.06;101234.28;4923319;29;20366;-91
2023/03/20 11:12:44;;;;;;;18.38;6.43;;;;;;;25.86;26.83;101267.41;4909792;29;20044;-91
2023/03/20 11:15:24;;;;;;;22.90;7.38;;;;;;;25.06;28.19;101264.47;4910177;29;20095;-89
2023/03/20 11:18:08;;;;;;;14.32;6.97;;;;;;;24.32;29.56;101235.81;4938433;29;20043;-93
2023/03/20 11:20:38;;;;;;;23.75;7.50;;;;;;;23.31;30.67;101266.66;4938524;29;20051;-92
2023/03/20 11:23:29;;;;;;;19.80;8.57;;;;;;;24.17;29.78;101252.78;4902353;29;20134;-93
2023/03/20 11:26:01;;;;;;;16.83;6.68;;;;;;;21.56;33.07;101258.53;4921913;29;20079;-89
2023/03/20 11:28:36;;;;;;;18.98;6.95;;;;;;;20.83;34.78;101251.47;4909051;29;20067;-90
2023/03/20 11:31:23;;;;;;;16.45;6.45;;;;;;;20.39;35.72;101226.53;4893723;29;20043;-91
2023/03/20 11:34:10;;;;;;;15.70;7.38;;;;;;;20.92;35.55;101252.91;5057457;23;20117;-92
2023/03/20 11:37:29;;;;;;;18.55;7.05;;;;;;;21.62;34.03;101217.47;4951627;28;20035;-91
2023/03/20 11:40:28;;;;;;;21.30;7.30;;;;;;;19.92;36.80;101249.41;4975546;28;20121;-90
2023/03/20 11:43:24;;;;;;;16.02;6.65;;;;;;;19.53;37.49;101207.38;4956241;29;20051;-92
2023/03/20 11:46:18;;;;;;;19.08;7.25;;;;;;;18.63;39.46;101231.91;4948899;28;20046;-92
2023/03/20 11:48:45;;;;;;;15.43;7.13;;;;;;;18.37;39.82;101224.41;4957326;28;20418;-92
2023/03/20 11:51:36;;;;;;;15.02;6.50;;;;;;;18.37;39.92;101226.28;4921570;28;20134;-93
2023/03/20 11:54:06;;;;;;;15.63;7.05;;;;;;;18.34;39.90;101186.72;4941702;28;20086;-85
2023/03/20 11:56:36;;;;;;;18.00;6.85;;;;;;;16.78;43.13;101207.25;4931834;29;20110;-90
2023/03/20 11:59:17;;;;;;;17.58;6.78;;;;;;;17.47;43.20;101224.00;4951831;28;20134;-91
2023/03/20 12:01:56;;;;;;;19.85;6.78;;;;;;;16.52;44.14;101186.84;4945739;28;20070;-92
2023/03/20 12:07:32;;;;;;;17.00;7.50;;;;;;;16.77;44.93;101227.31;4907543;28;20087;-88
2023/03/20 12:10:07;;;;;;;19.35;6.70;;;;;;;15.78;46.61;101214.69;4916725;29;20158;-90
2023/03/20 12:12:51;;;;;;;;;;;;;;;15.65;47.72;101227.97;4924011;29;20059;-88
2023/03/20 12:15:24;;;;;;;;;;;;;;;15.50;48.78;101218.91;4920200;29;19919;-90
2023/03/20 12:18:12;;;;;;;22.15;6.63;;;;;;;15.78;48.08;101214.69;4904048;29;19940;-90
2023/03/20 12:21:05;;;;;;;18.25;5.70;;;;;;;14.77;49.49;101212.88;4913799;29;20040;-92
2023/03/20 12:30:48;;;;;;;21.63;6.00;;;;;;;15.90;47.67;101203.44;4970354;23;20055;-92
2023/03/20 12:33:50;;;;;;;16.38;5.43;;;;;;;15.65;47.24;101195.44;4953153;28;20054;-90
2023/03/20 12:49:20;;;;;;;;;;;;;;;;;;;;;
2023/03/20 12:52:44;;;;;;;;;;;;;;;;;;;;;
2023/03/20 12:56:22;;;;;;;17.25;6.35;;;;;;;12.80;56.33;101185.78;4921702;29;20104;-91
2023/03/20 12:59:02;;;;;;;18.67;7.15;;;;;;;12.95;55.92;101150.09;4870321;29;20108;-91
2023/03/20 13:17:05;;;;;;;23.45;6.88;;;;;;;11.74;60.89;101172.47;5158552;23;20440;-90
2023/03/20 13:20:00;;;;;;;21.60;6.57;;;;;;;11.11;62.38;101159.94;4889101;29;20046;-91
2023/03/20 13:22:48;;;;;;;22.80;7.20;;;;;;;11.24;62.68;101142.56;4903905;29;20082;-90
2023/03/20 13:25:38;;;;;;;20.48;6.22;;;;;;;11.35;62.43;101166.56;4948490;29;20301;-94
2023/03/20 13:28:34;;;;;;;16.15;6.13;;;;;;;11.04;63.05;101134.66;4943006;29;20039;-91
2023/03/20 13:31:39;;;;;;;15.15;6.50;;;;;;;10.90;64.33;101170.97;4922654;29;20054;-92
2023/03/20 13:34:38;;;;;;;22.50;7.03;;;;;;;11.08;64.12;101164.81;4937814;28;20126;-92
2023/03/20 13:37:49;;;;;;;20.13;6.90;;;;;;;10.93;64.61;101168.00;4933779;29;20040;-92
2023/03/20 13:40:44;;;;;;;23.15;7.15;;;;;;;11.29;63.59;101156.44;4932857;29;20048;-91
2023/03/20 13:47:05;;;;;;;22.95;6.90;;;;;;;11.24;63.52;101140.75;4931780;29;20044;-91
2023/03/20 13:50:05;;;;;;;23.67;7.10;;;;;;;10.73;65.62;101156.50;4928015;29;20043;-93
2023/03/20 13:52:39;;;;;;;17.27;7.72;;;;;;;10.85;64.82;101129.41;4877849;29;20158;-93
2023/03/20 13:55:23;;;;;;;21.70;7.18;;;;;;;10.63;66.21;101155.72;4876299;29;20041;-92
2023/03/20 13:58:08;;;;;;;20.15;7.70;;;;;;;10.30;65.90;101117.66;4866446;29;20426;-91
2023/03/20 14:01:06;;;;;;;19.50;8.15;;;;;;;10.57;65.82;101142.84;4860790;29;20044;-91
2023/03/20 14:03:47;;;;;;;20.13;7.47;;;;;;;10.80;65.27;101154.06;4875790;29;20053;-94
2023/03/20 14:18:40;;;;;;;28.25;8.90;;;;;;;10.67;65.67;101124.81;4945188;29;20073;-93
2023/03/20 14:24:06;;;;;;;25.70;8.32;;;;;;;10.33;67.24;101132.66;5439969;23;20381;-92
2023/03/20 14:26:59;;;;;;;22.17;7.43;;;;;;;10.17;68.27;101138.59;5036326;23;21803;-94
2023/03/20 14:29:42;;;;;;;19.50;7.55;;;;;;;9.84;69.89;101122.03;4914164;29;20068;-94
2023/03/20 14:32:19;;;;;;;28.33;8.10;;;;;;;9.80;70.38;101147.47;4942871;28;20116;-93
2023/03/20 14:35:20;;;;;;;29.67;7.85;;;;;;;9.87;70.02;101110.97;4930398;28;20059;-91
2023/03/20 14:38:31;;;;;;;23.25;8.48;;;;;;;10.15;70.25;101135.22;4929253;29;20040;-91
2023/03/20 14:48:03;;;;;;;27.05;8.57;;;;;;;9.73;70.21;101089.97;5261146;23;20075;-94
2023/03/20 14:50:36;;;;;;;31.35;8.68;;;;;;;9.96;70.70;101140.66;5356291;23;20059;-91
2023/03/20 14:53:13;;;;;;;25.25;8.05;;;;;;;10.09;70.26;101141.16;4935792;29;20103;-90
2023/03/20 14:55:54;;;;;;;29.98;8.07;;;;;;;9.97;70.56;101151.25;4930709;29;20047;-89
2023/03/20 14:58:53;;;;;;;27.20;8.98;;;;;;;9.46;72.04;101118.41;4911491;29;20039;-93
2023/03/20 15:01:49;;;;;;;20.67;8.32;;;;;;;9.55;72.75;101140.00;4917249;29;20099;-93